Time;durP1;ratioP1;P1;durP2;ratioP2;P2;SDS_P1;SDS_P2;PMS_P1;PMS_P2;Temp;Humidity;BMP_temperature;BMP_pressure;BME280_temperature;BME280_humidity;BME280_pressure;Samples;Min_cycle;Max_cycle;Signal;HPM_P1;HPM_P2
2022/01/30 00:01:43;;;;;;;23.60;3.27;;;;;;;16.43;36.35;102838.38;5057332;28;20422;-69
2022/01/30 00:04:08;;;;;;;26.40;3.97;;;;;;;17.18;35.26;102827.50;5064494;28;20020;-69
2022/01/30 00:06:34;;;;;;;22.67;2.87;;;;;;;15.66;37.85;102826.97;5052721;28;20391;-68
2022/01/30 00:08:59;;;;;;;20.77;3.43;;;;;;;15.82;37.11;102827.91;5059805;28;20545;-68
2022/01/30 00:11:30;;;;;;;21.77;3.33;;;;;;;16.37;35.69;102835.72;5064764;28;20050;-69
2022/01/30 00:13:56;;;;;;;24.20;3.27;;;;;;;16.09;36.39;102827.88;5065425;28;20131;-69
2022/01/30 00:16:24;;;;;;;14.20;2.83;;;;;;;15.20;38.19;102838.34;5051464;28;20032;-69
2022/01/30 00:19:01;;;;;;;16.30;3.23;;;;;;;16.02;36.47;102834.03;5068142;28;20094;-69
2022/01/30 00:26:29;;;;;;;21.13;3.05;;;;;;;16.23;36.11;102850.72;5049749;28;20037;-68
2022/01/30 00:28:55;;;;;;;18.83;2.77;;;;;;;17.53;33.52;102842.25;5051786;28;20490;-69
2022/01/30 00:31:23;;;;;;;15.93;2.20;;;;;;;16.32;35.25;102857.72;5059350;28;20032;-69
2022/01/30 00:33:48;;;;;;;20.27;3.87;;;;;;;16.52;35.05;102852.41;5059436;28;20024;-67
2022/01/30 00:36:14;;;;;;;15.67;2.23;;;;;;;16.57;34.63;102848.88;5058715;28;20025;-68
2022/01/30 00:38:39;;;;;;;13.53;3.83;;;;;;;17.15;34.15;102853.97;5067147;28;20495;-68
2022/01/30 00:41:04;;;;;;;18.73;2.77;;;;;;;16.65;35.26;102864.72;5051699;28;20132;-68
2022/01/30 00:43:30;;;;;;;15.63;2.90;;;;;;;16.73;35.61;102862.91;5047164;28;20032;-69
2022/01/30 00:45:55;;;;;;;23.27;2.70;;;;;;;16.94;35.82;102863.75;5067999;28;20124;-69
2022/01/30 00:48:21;;;;;;;18.43;2.73;;;;;;;16.69;35.96;102870.84;5062022;28;20025;-70
2022/01/30 00:50:46;;;;;;;14.50;3.07;;;;;;;17.41;34.73;102867.88;5061364;28;20078;-70
2022/01/30 00:53:12;;;;;;;22.37;3.13;;;;;;;16.67;36.19;102873.47;5063724;28;20028;-68
2022/01/30 00:55:37;;;;;;;24.70;3.07;;;;;;;16.45;36.37;102870.91;5064428;28;20028;-68
2022/01/30 00:58:03;;;;;;;22.90;2.57;;;;;;;17.07;35.95;102862.78;5070955;28;20037;-70
2022/01/30 01:00:29;;;;;;;9.73;1.90;;;;;;;17.17;35.80;102868.03;5064324;28;20032;-70
2022/01/30 01:02:55;;;;;;;24.33;3.47;;;;;;;17.29;35.06;102867.97;5058193;28;20036;-70
2022/01/30 01:05:21;;;;;;;20.20;2.17;;;;;;;17.54;34.66;102867.78;5066424;28;20044;-70
2022/01/30 01:07:48;;;;;;;17.50;2.60;;;;;;;16.64;35.74;102860.31;5071769;28;20124;-70
2022/01/30 01:25:46;;;;;;;21.13;2.97;;;;;;;17.42;34.59;102867.00;5052722;28;20041;-70
2022/01/30 01:28:11;;;;;;;18.40;2.13;;;;;;;16.77;35.62;102861.13;5056136;28;20029;-69
2022/01/30 01:30:37;;;;;;;24.50;2.60;;;;;;;16.42;36.41;102865.63;5070763;28;20099;-69
2022/01/30 01:33:03;;;;;;;19.30;2.47;;;;;;;16.70;35.77;102867.31;5063971;28;20029;-69
2022/01/30 01:35:29;;;;;;;19.47;2.33;;;;;;;16.64;35.57;102873.50;5069358;28;20021;-69
2022/01/30 01:37:55;;;;;;;25.20;2.60;;;;;;;16.61;35.58;102878.81;5070016;28;20020;-68
2022/01/30 01:40:21;;;;;;;18.90;3.07;;;;;;;17.16;34.21;102892.69;5074808;28;20044;-70
2022/01/30 01:42:47;;;;;;;18.50;3.50;;;;;;;16.45;35.74;102889.38;5069044;28;20070;-69
2022/01/30 01:45:18;;;;;;;16.97;2.70;;;;;;;16.21;36.20;102890.31;5053594;28;20021;-69
2022/01/30 01:47:44;;;;;;;20.83;2.27;;;;;;;15.77;37.01;102896.41;5053820;28;20060;-70
2022/01/30 01:50:16;;;;;;;17.50;2.17;;;;;;;15.79;36.88;102881.47;5071448;28;20103;-69
2022/01/30 01:52:42;;;;;;;21.80;2.85;;;;;;;16.03;36.22;102896.47;5059913;28;20401;-69
2022/01/30 01:55:08;;;;;;;14.63;2.03;;;;;;;16.83;34.57;102895.44;5064964;28;20043;-69
2022/01/30 01:57:33;;;;;;;22.67;3.10;;;;;;;16.38;35.52;102897.31;5070408;28;20166;-68
2022/01/30 01:59:59;;;;;;;8.97;1.63;;;;;;;15.57;36.59;102891.13;5052970;28;20040;-68
2022/01/30 02:02:26;;;;;;;19.53;3.20;;;;;;;17.07;34.32;102899.78;5058817;28;20130;-68
2022/01/30 02:04:52;;;;;;;21.17;2.20;;;;;;;16.47;34.91;102896.41;5068864;28;20033;-68
2022/01/30 02:09:52;;;;;;;16.50;2.97;;;;;;;17.10;33.19;102904.16;5051189;28;20065;-68
2022/01/30 02:12:24;;;;;;;10.77;1.93;;;;;;;16.81;33.79;102896.34;5057067;28;20062;-68
2022/01/30 02:15:08;;;;;;;6.10;1.52;;;;;;;17.25;32.87;102905.84;5050460;28;20123;-68
2022/01/30 02:25:50;;;;;;;19.83;2.03;;;;;;;15.49;37.13;102893.72;5035433;28;20044;-68
2022/01/30 02:28:18;;;;;;;15.53;2.70;;;;;;;15.67;36.95;102892.00;5082580;28;20072;-68
2022/01/30 02:30:52;;;;;;;23.60;2.57;;;;;;;16.70;35.46;102897.22;5069003;28;20395;-68
2022/01/30 02:33:21;;;;;;;13.57;1.77;;;;;;;16.77;35.12;102895.44;5066128;28;20020;-68
2022/01/30 02:35:47;;;;;;;18.00;2.17;;;;;;;16.33;35.55;102894.66;5054312;28;20112;-68
2022/01/30 02:38:13;;;;;;;12.17;1.77;;;;;;;17.55;32.95;102893.34;5051547;28;20115;-68
2022/01/30 02:40:42;;;;;;;12.17;2.93;;;;;;;16.15;35.58;102903.50;5051922;28;20386;-68
2022/01/30 02:43:08;;;;;;;13.40;1.90;;;;;;;15.89;36.49;102903.50;5066508;28;20500;-68
2022/01/30 02:45:36;;;;;;;10.00;1.50;;;;;;;15.57;36.33;102912.22;5055743;28;20031;-68
2022/01/30 02:50:49;;;;;;;11.37;1.77;;;;;;;16.63;35.29;102906.06;5051057;28;20036;-68
2022/01/30 02:53:14;;;;;;;13.57;2.40;;;;;;;18.39;32.01;102891.78;5051328;28;20029;-68
2022/01/30 02:55:40;;;;;;;15.10;2.23;;;;;;;17.02;34.45;102892.75;5066756;28;20035;-68
2022/01/30 02:58:05;;;;;;;18.30;2.10;;;;;;;16.63;35.56;102898.13;5055316;28;20115;-69
2022/01/30 03:00:31;;;;;;;9.80;1.60;;;;;;;16.63;35.34;102904.28;5067235;28;20409;-68
2022/01/30 03:02:57;;;;;;;14.73;1.80;;;;;;;17.16;34.23;102897.97;5060661;28;20032;-73
2022/01/30 03:05:22;;;;;;;6.50;1.53;;;;;;;16.49;35.38;102899.94;5067581;28;20531;-68
2022/01/30 03:07:48;;;;;;;12.57;2.20;;;;;;;16.99;35.04;102903.34;5055710;28;20036;-68
2022/01/30 03:10:14;;;;;;;11.73;1.90;;;;;;;17.51;34.07;102895.13;5049133;28;20029;-68
2022/01/30 03:12:40;;;;;;;16.40;1.87;;;;;;;16.24;35.74;102900.84;5067139;28;20036;-68
2022/01/30 03:15:06;;;;;;;17.50;1.63;;;;;;;16.47;34.98;102891.13;5062396;28;20067;-69
2022/01/30 03:17:32;;;;;;;14.80;1.73;;;;;;;17.12;34.25;102898.00;5048795;28;20074;-68
2022/01/30 03:19:57;;;;;;;13.87;1.90;;;;;;;16.84;34.51;102905.09;5078698;28;20024;-68
2022/01/30 03:22:24;;;;;;;9.57;1.97;;;;;;;16.86;34.07;102913.06;5065321;28;20440;-68
2022/01/30 03:24:49;;;;;;;12.47;1.73;;;;;;;16.01;35.85;102914.03;5069036;28;20380;-68
2022/01/30 03:27:15;;;;;;;9.90;1.60;;;;;;;16.99;34.30;102922.69;5061725;28;20024;-68
2022/01/30 03:29:41;;;;;;;15.13;2.63;;;;;;;17.78;32.69;102915.22;5052344;28;20429;-68
2022/01/30 03:32:07;;;;;;;13.87;1.37;;;;;;;16.36;34.96;102921.09;5065428;28;20066;-68
2022/01/30 03:34:33;;;;;;;11.53;1.70;;;;;;;16.94;33.90;102924.50;5059662;28;20527;-68
2022/01/30 03:36:58;;;;;;;15.00;1.87;;;;;;;18.07;32.23;102911.50;5060843;28;20449;-68
2022/01/30 03:39:24;;;;;;;8.13;1.10;;;;;;;15.64;36.88;102932.44;5054281;28;20024;-68
2022/01/30 03:41:49;;;;;;;15.50;2.13;;;;;;;15.84;36.46;102935.13;5057475;28;20141;-68
2022/01/30 03:44:15;;;;;;;28.50;3.03;;;;;;;16.69;34.67;102935.09;5063319;28;20032;-68
2022/01/30 03:46:40;;;;;;;12.40;2.17;;;;;;;16.29;35.94;102953.59;5053541;28;20115;-68
2022/01/30 03:49:06;;;;;;;14.77;1.93;;;;;;;15.48;36.47;102954.34;5066741;28;20084;-69
2022/01/30 03:51:31;;;;;;;15.70;2.10;;;;;;;15.96;35.05;102947.44;5080934;28;20067;-68
2022/01/30 03:53:56;;;;;;;13.80;1.50;;;;;;;17.37;32.58;102947.22;5054447;28;20052;-68
2022/01/30 03:56:22;;;;;;;6.67;1.57;;;;;;;15.09;35.08;102941.91;5048508;28;20108;-68
2022/01/30 03:58:47;;;;;;;6.67;1.60;;;;;;;15.71;33.79;102942.09;5060543;28;20028;-68
2022/01/30 04:01:12;;;;;;;7.80;1.33;;;;;;;16.06;32.87;102949.22;5068854;28;20028;-68
2022/01/30 04:03:38;;;;;;;12.90;1.30;;;;;;;15.61;32.32;102940.34;5068921;28;20387;-68
2022/01/30 04:06:04;;;;;;;14.60;2.23;;;;;;;15.01;33.63;102943.63;5055089;28;20029;-68
2022/01/30 04:08:30;;;;;;;8.13;1.07;;;;;;;14.90;33.89;102945.31;5055553;28;20027;-70
2022/01/30 04:10:56;;;;;;;7.10;1.07;;;;;;;15.41;33.21;102938.53;5068553;28;20024;-70
2022/01/30 04:13:21;;;;;;;13.93;1.30;;;;;;;16.37;31.84;102943.06;5057627;28;20033;-68
2022/01/30 04:15:47;;;;;;;13.50;1.27;;;;;;;16.14;32.61;102946.56;5061203;28;20365;-68
2022/01/30 04:18:13;;;;;;;20.23;2.00;;;;;;;15.80;32.59;102941.28;5051763;28;20025;-68
2022/01/30 04:20:39;;;;;;;13.33;2.17;;;;;;;16.79;31.79;102946.53;5058238;28;20048;-68
2022/01/30 04:23:04;;;;;;;12.53;1.47;;;;;;;16.81;31.54;102943.88;5063430;28;20036;-68
2022/01/30 04:25:29;;;;;;;13.60;1.00;;;;;;;16.60;31.93;102956.22;5066837;28;20028;-68
2022/01/30 04:27:55;;;;;;;8.93;1.13;;;;;;;16.28;32.32;102944.81;5050705;28;20048;-68
2022/01/30 04:30:21;;;;;;;12.13;1.73;;;;;;;16.98;31.20;102951.75;5032951;28;20029;-68
2022/01/30 04:32:47;;;;;;;9.60;1.40;;;;;;;17.41;30.81;102949.81;5051555;28;20029;-68
2022/01/30 04:35:24;;;;;;;6.37;0.93;;;;;;;15.57;34.28;102954.38;5062901;28;20020;-68
2022/01/30 04:38:02;;;;;;;16.83;1.80;;;;;;;16.11;33.54;102955.38;5058631;28;20017;-68
2022/01/30 04:57:35;;;;;;;11.03;1.93;;;;;;;15.51;33.90;102978.06;5037517;28;20025;-68
2022/01/30 05:00:03;;;;;;;14.70;2.03;;;;;;;15.42;34.33;102971.03;5053773;28;20033;-68
2022/01/30 05:02:45;;;;;;;11.10;1.70;;;;;;;15.46;34.23;102971.94;5047275;28;20048;-68
2022/01/30 05:07:57;;;;;;;15.30;1.83;;;;;;;15.37;34.21;102975.38;5056129;28;20131;-68
2022/01/30 05:10:22;;;;;;;13.43;1.70;;;;;;;15.65;33.63;102984.28;5063492;28;20458;-68
2022/01/30 05:12:52;;;;;;;10.83;1.47;;;;;;;15.59;33.73;102990.41;5051395;28;20138;-68
2022/01/30 05:15:19;;;;;;;12.17;2.13;;;;;;;15.75;33.21;102986.03;5048907;28;20412;-68
2022/01/30 05:17:45;;;;;;;8.67;1.30;;;;;;;14.83;34.47;102996.19;5049523;28;20017;-68
2022/01/30 05:20:11;;;;;;;12.13;1.53;;;;;;;17.05;31.11;102988.75;5056550;28;20445;-68
2022/01/30 05:22:37;;;;;;;17.67;1.90;;;;;;;17.29;31.03;102994.81;5051741;28;20063;-68
2022/01/30 05:25:03;;;;;;;9.57;2.00;;;;;;;17.41;30.56;102997.41;5047393;28;20032;-68
2022/01/30 05:27:29;;;;;;;13.37;1.50;;;;;;;17.19;31.05;103001.03;5047405;28;20033;-68
2022/01/30 05:29:55;;;;;;;8.83;1.67;;;;;;;17.34;31.05;103011.53;5055206;28;20081;-68
2022/01/30 05:32:20;;;;;;;10.43;2.43;;;;;;;15.64;33.43;103018.53;5056606;28;20035;-68
2022/01/30 05:34:46;;;;;;;10.07;1.97;;;;;;;16.44;31.91;103016.97;5064419;28;20084;-68
2022/01/30 05:37:18;;;;;;;14.67;2.20;;;;;;;15.77;33.36;103025.59;5047688;28;20032;-68
2022/01/30 05:39:44;;;;;;;14.17;2.63;;;;;;;14.90;34.78;103037.47;5047178;28;20024;-68
2022/01/30 05:42:11;;;;;;;9.97;1.60;;;;;;;14.75;34.23;103036.50;5055308;28;20021;-68
2022/01/30 05:47:14;;;;;;;18.37;2.03;;;;;;;15.66;33.33;103046.69;5066056;28;20117;-68
2022/01/30 05:49:40;;;;;;;11.83;2.03;;;;;;;15.71;33.52;103049.31;5056742;28;20032;-68
2022/01/30 05:52:06;;;;;;;12.27;1.50;;;;;;;16.77;31.23;103049.53;5061950;28;20064;-68
2022/01/30 05:54:31;;;;;;;9.77;1.47;;;;;;;16.67;31.32;103046.88;5055226;28;20071;-68
2022/01/30 05:56:56;;;;;;;8.63;1.27;;;;;;;16.25;31.92;103052.13;5052631;28;20052;-68
2022/01/30 05:59:22;;;;;;;9.57;1.33;;;;;;;15.74;33.06;103047.59;5067073;28;20136;-68
2022/01/30 06:01:47;;;;;;;20.10;3.13;;;;;;;15.82;32.51;103059.94;5059487;28;20111;-68
2022/01/30 06:04:12;;;;;;;23.00;2.37;;;;;;;15.69;33.40;103059.88;5069184;28;20027;-68
2022/01/30 06:06:38;;;;;;;17.50;2.77;;;;;;;16.18;32.70;103058.28;5051544;28;20028;-68
2022/01/30 06:11:41;;;;;;;13.83;2.53;;;;;;;15.63;33.21;103066.88;5060247;28;20492;-68
2022/01/30 06:14:06;;;;;;;13.27;2.03;;;;;;;15.32;33.76;103064.97;5075768;28;20045;-68
2022/01/30 06:16:31;;;;;;;11.13;2.00;;;;;;;16.69;31.54;103061.84;5052446;28;20068;-68
2022/01/30 06:18:57;;;;;;;16.70;2.30;;;;;;;16.83;31.43;103053.00;5061002;28;20034;-68
2022/01/30 06:21:22;;;;;;;15.17;2.27;;;;;;;15.96;32.89;103063.50;5063670;28;20048;-68
2022/01/30 06:23:49;;;;;;;6.07;1.50;;;;;;;16.15;32.29;103068.81;5059449;28;20048;-68
2022/01/30 06:26:14;;;;;;;15.60;2.10;;;;;;;16.15;32.17;103074.09;5068981;28;20044;-68
2022/01/30 06:28:39;;;;;;;15.50;1.67;;;;;;;16.27;32.05;103068.84;5066787;28;20057;-68
2022/01/30 06:31:05;;;;;;;13.40;1.93;;;;;;;16.84;30.87;103060.06;5066433;28;20047;-68
2022/01/30 06:33:30;;;;;;;20.23;2.87;;;;;;;16.78;31.25;103072.38;5053752;28;20033;-68
2022/01/30 06:35:55;;;;;;;11.87;1.83;;;;;;;17.63;30.13;103074.00;5051788;28;20276;-68
2022/01/30 06:38:21;;;;;;;14.60;2.10;;;;;;;17.89;29.81;103075.66;5057318;28;20029;-68
2022/01/30 06:40:46;;;;;;;10.50;2.17;;;;;;;17.34;30.75;103077.63;5070153;28;20027;-68
2022/01/30 06:43:11;;;;;;;8.83;2.37;;;;;;;17.85;29.84;103082.72;5064808;28;20048;-68
2022/01/30 06:45:37;;;;;;;12.80;1.87;;;;;;;17.21;30.85;103083.81;5054956;28;20039;-68
2022/01/30 06:48:02;;;;;;;17.17;2.20;;;;;;;16.85;31.37;103094.38;5059925;28;20076;-68
2022/01/30 06:50:28;;;;;;;15.10;1.70;;;;;;;18.08;29.58;103087.91;5063263;28;20028;-68
2022/01/30 06:52:53;;;;;;;12.90;1.80;;;;;;;17.57;29.84;103080.19;5058976;28;20066;-68
2022/01/30 06:55:18;;;;;;;13.50;1.80;;;;;;;15.72;33.08;103086.22;5066641;28;20479;-68
2022/01/30 06:57:45;;;;;;;11.10;2.00;;;;;;;16.42;31.95;103087.34;5059534;28;20038;-68
2022/01/30 07:00:12;;;;;;;16.17;2.17;;;;;;;17.18;30.76;103078.53;5070128;28;20043;-68
2022/01/30 07:02:37;;;;;;;10.87;2.70;;;;;;;16.94;30.97;103078.56;5050310;28;20040;-68
2022/01/30 07:05:03;;;;;;;21.30;3.07;;;;;;;17.39;30.47;103075.84;5051875;28;20037;-68
2022/01/30 07:07:29;;;;;;;20.50;2.17;;;;;;;16.70;30.86;103084.69;5051555;28;20032;-67
2022/01/30 07:09:55;;;;;;;12.97;1.93;;;;;;;16.77;31.13;103075.94;5062915;28;20036;-68
2022/01/30 07:12:20;;;;;;;16.87;3.23;;;;;;;16.44;30.92;103098.78;5057317;28;20035;-67
2022/01/30 07:14:45;;;;;;;15.10;2.13;;;;;;;17.00;30.55;103104.09;5062873;28;20490;-67
2022/01/30 07:17:11;;;;;;;13.93;2.87;;;;;;;16.45;31.29;103105.81;5082562;28;20044;-67
2022/01/30 07:19:36;;;;;;;15.90;2.20;;;;;;;16.55;31.14;103100.53;5052729;28;20039;-67
2022/01/30 07:22:02;;;;;;;14.17;2.83;;;;;;;16.00;31.83;103112.72;5049309;28;20456;-68
2022/01/30 07:24:27;;;;;;;18.37;2.63;;;;;;;17.35;29.79;103123.41;5048733;28;20484;-68
2022/01/30 07:26:52;;;;;;;19.73;2.90;;;;;;;16.66;30.70;103125.19;5053253;28;20028;-68
2022/01/30 07:29:18;;;;;;;20.03;2.83;;;;;;;17.10;30.47;103131.38;5082986;28;20132;-68
2022/01/30 07:31:43;;;;;;;14.40;2.83;;;;;;;16.40;31.51;103138.34;5066479;28;20399;-68
2022/01/30 07:34:08;;;;;;;16.83;2.07;;;;;;;16.40;31.26;103141.91;5069599;28;20059;-68
2022/01/30 07:36:35;;;;;;;7.60;1.60;;;;;;;16.37;31.70;103133.94;5069806;28;20036;-68
2022/01/30 07:39:01;;;;;;;10.23;2.30;;;;;;;17.17;30.31;103132.28;5058366;28;20051;-68
2022/01/30 07:41:26;;;;;;;20.43;1.97;;;;;;;16.13;31.97;103129.50;5066402;28;20060;-68
2022/01/30 07:43:52;;;;;;;13.97;2.40;;;;;;;16.19;31.79;103124.22;5049400;28;20393;-68
2022/01/30 07:46:17;;;;;;;19.33;2.77;;;;;;;16.55;31.30;103119.91;5049823;28;20477;-68
2022/01/30 07:48:43;;;;;;;22.47;3.40;;;;;;;16.83;31.32;103126.97;5050261;28;20029;-68
2022/01/30 07:51:08;;;;;;;16.77;3.17;;;;;;;17.27;30.25;103118.16;5049466;28;20035;-67
2022/01/30 07:53:34;;;;;;;22.73;4.63;;;;;;;17.15;30.91;103118.19;5054781;28;20032;-68
2022/01/30 07:56:00;;;;;;;16.50;3.37;;;;;;;16.58;31.70;103129.59;5069101;28;20164;-67
2022/01/30 07:58:26;;;;;;;22.27;3.23;;;;;;;16.87;31.18;103129.63;5053321;28;20025;-67
2022/01/30 08:00:51;;;;;;;22.13;2.43;;;;;;;17.20;31.28;103127.88;5048775;28;20148;-67
2022/01/30 08:03:16;;;;;;;21.50;3.77;;;;;;;17.08;31.34;103127.88;5050393;28;20025;-67
2022/01/30 08:05:42;;;;;;;18.87;4.33;;;;;;;17.23;30.79;103121.72;5056478;28;20062;-68
2022/01/30 08:08:07;;;;;;;22.53;4.30;;;;;;;18.54;28.73;103130.88;5058526;28;20064;-68
2022/01/30 08:10:34;;;;;;;21.00;4.93;;;;;;;18.02;29.71;103129.41;5052652;28;20013;-67
2022/01/30 08:12:59;;;;;;;24.87;4.87;;;;;;;17.80;29.62;103140.03;5060080;28;20031;-67
2022/01/30 08:15:25;;;;;;;15.03;4.80;;;;;;;18.45;29.07;103140.63;5068534;28;20032;-68
2022/01/30 08:17:50;;;;;;;8.23;2.13;;;;;;;17.88;30.00;103142.66;5065642;28;20036;-70
2022/01/30 08:20:16;;;;;;;23.43;4.23;;;;;;;17.43;30.72;103138.41;5051422;28;20436;-67
2022/01/30 08:22:50;;;;;;;17.83;3.33;;;;;;;17.79;30.31;103144.47;5075488;28;20082;-67
2022/01/30 08:25:20;;;;;;;11.20;2.33;;;;;;;17.46;31.31;103143.69;5049300;28;20158;-68
2022/01/30 08:27:47;;;;;;;13.50;2.27;;;;;;;17.24;31.38;103147.22;5052499;28;20036;-68
2022/01/30 08:30:13;;;;;;;13.33;2.93;;;;;;;16.13;33.04;103144.44;5048313;28;20029;-68
2022/01/30 08:32:44;;;;;;;16.47;2.00;;;;;;;17.66;31.46;103145.38;5066307;28;20059;-67
2022/01/30 08:35:11;;;;;;;15.27;4.50;;;;;;;17.75;30.45;103152.38;5067382;28;20456;-67
2022/01/30 08:37:36;;;;;;;23.93;2.80;;;;;;;17.17;31.72;103154.28;5048376;28;20021;-67
2022/01/30 08:40:14;;;;;;;18.37;3.33;;;;;;;18.19;30.68;103142.53;5048707;28;20033;-68
2022/01/30 08:42:39;;;;;;;22.17;2.60;;;;;;;18.14;30.86;103140.78;5058574;28;20485;-68
2022/01/30 08:45:08;;;;;;;14.90;2.40;;;;;;;17.27;32.03;103141.97;5069697;28;20197;-68
2022/01/30 08:47:33;;;;;;;16.50;3.17;;;;;;;18.47;29.83;103144.13;5056606;28;20025;-68
2022/01/30 08:49:59;;;;;;;21.17;2.67;;;;;;;17.36;32.09;103144.56;5049265;28;20040;-67
2022/01/30 08:52:24;;;;;;;17.63;2.90;;;;;;;17.94;30.97;103142.66;5048796;28;20408;-68
2022/01/30 08:54:51;;;;;;;14.33;2.97;;;;;;;18.39;31.02;103138.00;5059491;28;20032;-68
2022/01/30 08:57:17;;;;;;;24.57;4.93;;;;;;;17.93;31.22;103143.56;5080502;28;20051;-69
2022/01/30 08:59:42;;;;;;;22.80;3.17;;;;;;;19.31;28.99;103144.34;5048306;28;20029;-68
2022/01/30 09:02:08;;;;;;;33.73;5.63;;;;;;;17.75;31.82;103162.97;5056570;28;20040;-69
2022/01/30 09:04:33;;;;;;;25.13;2.93;;;;;;;19.04;29.50;103156.13;5050398;28;20111;-68
2022/01/30 09:06:59;;;;;;;8.23;1.70;;;;;;;19.49;28.66;103158.31;5048406;28;20036;-69
2022/01/30 09:09:25;;;;;;;25.73;3.83;;;;;;;17.96;31.12;103162.06;5064150;28;20062;-69
2022/01/30 09:11:51;;;;;;;25.07;2.63;;;;;;;18.61;30.02;103164.34;5043616;28;20378;-69
2022/01/30 09:14:16;;;;;;;14.50;2.83;;;;;;;18.04;31.43;103169.94;5056042;28;20032;-68
2022/01/30 09:16:44;;;;;;;16.20;2.10;;;;;;;18.03;31.16;103184.97;5062881;28;20043;-69
2022/01/30 09:19:09;;;;;;;12.40;2.97;;;;;;;18.27;30.42;103177.78;5058454;28;20380;-69
2022/01/30 09:21:35;;;;;;;16.73;2.70;;;;;;;19.60;28.59;103166.16;5063707;28;20048;-69
2022/01/30 09:24:00;;;;;;;16.27;2.70;;;;;;;18.05;30.68;103183.22;5054559;28;20033;-69
2022/01/30 09:26:25;;;;;;;19.77;2.10;;;;;;;18.99;29.92;103179.13;5067998;28;20480;-69
2022/01/30 09:28:51;;;;;;;24.13;2.43;;;;;;;18.69;30.35;103199.63;5051569;28;20083;-69
2022/01/30 09:31:16;;;;;;;12.97;2.70;;;;;;;19.37;29.35;103196.47;5055652;28;20051;-68
2022/01/30 09:33:42;;;;;;;12.00;2.30;;;;;;;18.66;30.28;103199.63;5054035;28;20029;-69
2022/01/30 09:36:08;;;;;;;19.40;2.83;;;;;;;19.12;29.64;103191.38;5070332;28;20024;-69
2022/01/30 09:38:33;;;;;;;18.90;3.27;;;;;;;18.47;31.00;103197.09;5064282;28;20029;-68
2022/01/30 09:40:59;;;;;;;18.13;3.17;;;;;;;18.43;29.89;103200.63;5052617;28;20041;-69
2022/01/30 09:43:27;;;;;;;18.53;3.90;;;;;;;17.40;31.97;103204.47;5052339;28;20037;-68
2022/01/30 09:45:53;;;;;;;18.77;3.10;;;;;;;19.98;28.49;103194.06;5052964;28;20025;-68
2022/01/30 09:48:19;;;;;;;13.90;2.00;;;;;;;17.59;31.81;103205.34;5062315;28;20485;-69
2022/01/30 09:50:46;;;;;;;15.93;2.43;;;;;;;17.45;31.74;103208.00;5063462;28;20491;-69
2022/01/30 09:53:11;;;;;;;12.43;2.77;;;;;;;17.91;31.14;103200.84;5050421;28;20025;-69
2022/01/30 09:55:37;;;;;;;15.17;1.83;;;;;;;17.13;32.28;103206.25;5062707;28;20055;-68
2022/01/30 09:58:04;;;;;;;23.40;3.00;;;;;;;17.75;31.29;103194.72;5061264;28;20021;-68
2022/01/30 10:00:30;;;;;;;19.00;2.13;;;;;;;19.00;29.97;103191.47;5050853;28;20029;-68
2022/01/30 10:02:55;;;;;;;13.20;2.17;;;;;;;19.28;29.30;103196.53;5054317;28;20032;-69
2022/01/30 10:05:21;;;;;;;15.97;3.40;;;;;;;18.78;29.91;103196.00;5052896;28;20029;-69
2022/01/30 10:07:51;;;;;;;20.07;3.13;;;;;;;17.75;31.55;103206.19;5061180;28;20025;-69
2022/01/30 10:10:19;;;;;;;17.97;2.87;;;;;;;18.73;30.34;103198.69;5051940;28;20036;-69
2022/01/30 10:13:11;;;;;;;18.93;2.23;;;;;;;18.37;30.95;103192.75;5069100;28;20428;-69
2022/01/30 10:16:00;;;;;;;19.00;2.40;;;;;;;18.67;30.22;103204.06;5068109;28;20041;-68
2022/01/30 10:18:27;;;;;;;20.70;2.60;;;;;;;18.68;29.78;103205.78;5052282;28;20274;-69
2022/01/30 10:20:53;;;;;;;9.97;1.83;;;;;;;18.23;30.91;103211.34;5061875;28;20435;-69
2022/01/30 10:23:18;;;;;;;14.73;2.20;;;;;;;19.15;29.56;103216.97;5063148;28;20028;-70
2022/01/30 10:25:46;;;;;;;14.80;2.23;;;;;;;19.55;29.39;103218.38;5069502;28;20033;-68
2022/01/30 10:28:18;;;;;;;8.47;1.90;;;;;;;20.23;27.89;103220.28;5059754;28;20048;-69
2022/01/30 10:30:55;;;;;;;18.63;2.20;;;;;;;19.56;28.95;103223.66;5055029;28;20032;-69
2022/01/30 10:33:23;;;;;;;12.20;2.10;;;;;;;17.63;31.46;103237.94;5061206;28;20476;-68
2022/01/30 10:35:57;;;;;;;17.97;2.57;;;;;;;18.82;30.00;103246.34;5070409;28;20085;-69
2022/01/30 10:38:38;;;;;;;9.47;1.57;;;;;;;17.39;31.86;103238.84;5055425;28;20032;-69
2022/01/30 10:41:12;;;;;;;22.47;3.83;;;;;;;18.41;30.21;103234.22;5051079;28;20037;-68
2022/01/30 10:44:08;;;;;;;15.97;2.20;;;;;;;18.36;29.83;103225.41;5057940;28;20029;-69
2022/01/30 10:46:41;;;;;;;21.40;5.17;;;;;;;19.26;29.11;103219.53;5073179;28;20029;-69
2022/01/30 10:49:12;;;;;;;26.73;5.90;;;;;;;19.07;28.81;103224.09;5078740;28;20151;-68
2022/01/30 10:51:37;;;;;;;18.67;3.87;;;;;;;20.41;27.87;103214.72;5086283;28;20037;-68
2022/01/30 10:54:13;;;;;;;23.60;7.07;;;;;;;21.83;26.18;103207.09;5053210;28;20408;-69
2022/01/30 10:56:39;;;;;;;15.10;3.37;;;;;;;20.12;25.97;103223.09;5053660;28;20146;-69
2022/01/30 10:59:08;;;;;;;18.30;3.03;;;;;;;19.44;27.01;103215.81;5063905;28;20078;-68
2022/01/30 11:01:34;;;;;;;16.87;2.60;;;;;;;19.72;26.16;103211.13;5067873;28;20048;-68
2022/01/30 11:04:00;;;;;;;21.93;2.90;;;;;;;19.29;26.96;103214.22;5053218;28;20045;-68
2022/01/30 11:06:30;;;;;;;24.20;3.27;;;;;;;20.76;24.88;103221.34;5062640;28;20484;-69
2022/01/30 11:09:30;;;;;;;15.97;2.70;;;;;;;21.16;25.70;103217.19;5067174;28;20025;-69
2022/01/30 11:12:28;;;;;;;28.87;2.87;;;;;;;20.32;27.18;103215.72;5030061;28;20036;-69
2022/01/30 11:17:18;;;;;;;17.52;2.25;;;;;;;20.53;26.03;103218.13;5052931;28;20050;-69
2022/01/30 11:19:45;;;;;;;18.23;3.30;;;;;;;20.20;25.95;103215.03;5052290;28;20075;-69
2022/01/30 11:22:13;;;;;;;13.57;2.57;;;;;;;19.49;26.47;103214.91;5059012;28;20052;-68
2022/01/30 11:25:01;;;;;;;15.87;2.70;;;;;;;20.53;25.07;103223.44;5061133;28;20029;-68
2022/01/30 11:27:27;;;;;;;11.37;2.57;;;;;;;16.96;29.05;103229.16;5051185;28;20047;-68
2022/01/30 11:29:53;;;;;;;26.50;3.30;;;;;;;17.91;28.67;103227.31;5051043;28;20492;-69
2022/01/30 11:32:20;;;;;;;13.37;2.27;;;;;;;17.66;28.78;103226.50;5052381;28;20226;-68
2022/01/30 11:34:46;;;;;;;20.00;3.27;;;;;;;19.22;27.49;103223.09;5049696;28;20024;-68
2022/01/30 11:37:14;;;;;;;39.37;6.33;;;;;;;20.59;26.00;103213.56;5050339;28;20037;-69
2022/01/30 11:39:52;;;;;;;22.27;3.67;;;;;;;19.65;27.50;103215.59;5074782;28;20025;-68
2022/01/30 11:42:23;;;;;;;29.23;4.40;;;;;;;21.48;24.65;103210.41;5055353;28;20135;-69
2022/01/30 11:45:10;;;;;;;18.50;2.40;;;;;;;19.53;27.55;103210.44;5059493;28;20043;-68
2022/01/30 11:47:51;;;;;;;25.83;3.90;;;;;;;20.78;26.06;103208.91;5051463;28;20355;-67
2022/01/30 11:50:25;;;;;;;17.97;3.07;;;;;;;18.93;28.13;103217.16;5063504;28;20016;-68
2022/01/30 11:52:50;;;;;;;27.60;5.20;;;;;;;18.81;27.55;103212.78;5050055;28;20104;-68
2022/01/30 11:55:38;;;;;;;15.27;3.50;;;;;;;20.36;26.01;103200.66;5049493;28;20135;-68
2022/01/30 11:58:04;;;;;;;23.73;4.27;;;;;;;18.76;27.78;103214.56;5063766;28;20108;-68
2022/01/30 12:00:48;;;;;;;19.87;3.90;;;;;;;20.00;25.81;103198.44;5056642;28;20036;-69
2022/01/30 12:03:35;;;;;;;25.03;6.57;;;;;;;20.27;25.67;103184.84;5059911;28;20111;-68
2022/01/30 12:06:28;;;;;;;35.63;9.10;;;;;;;21.96;24.48;103185.53;5068418;28;20036;-68
2022/01/30 12:09:17;;;;;;;;;;;;;;;19.94;26.90;103185.25;5061015;28;20033;-68
2022/01/30 12:11:47;;;;;;;23.37;5.70;;;;;;;19.16;28.21;103181.63;5029680;28;19913;-68
2022/01/30 12:14:21;;;;;;;16.83;4.67;;;;;;;17.88;29.74;103190.28;5063170;28;20036;-68
2022/01/30 12:16:48;;;;;;;21.67;3.97;;;;;;;17.53;29.80;103191.25;5070245;28;20032;-68
2022/01/30 12:19:18;;;;;;;24.03;3.23;;;;;;;18.50;27.61;103180.31;5049966;28;20096;-68
2022/01/30 12:21:44;;;;;;;20.43;1.90;;;;;;;18.88;27.11;103187.16;5049367;28;20053;-68
2022/01/30 12:24:23;;;;;;;17.50;4.73;;;;;;;18.92;27.58;103182.72;5065747;28;20044;-68